Time;durP1;ratioP1;P1;durP2;ratioP2;P2;SDS_P1;SDS_P2;PMS_P1;PMS_P2;Temp;Humidity;BMP_temperature;BMP_pressure;BME280_temperature;BME280_humidity;BME280_pressure;Samples;Min_cycle;Max_cycle;Signal;HPM_P1;HPM_P2
2020/12/16 00:00:33;;;;;;;18.83;10.60;;;;;;;4.41;84.44;100975.94;5056586;28;20551;-74
2020/12/16 00:02:59;;;;;;;17.43;10.63;;;;;;;4.39;84.75;100974.22;5043804;28;20827;-74
2020/12/16 00:05:25;;;;;;;21.80;10.93;;;;;;;4.38;84.52;100975.94;5053012;28;20779;-74
2020/12/16 00:07:51;;;;;;;18.33;10.00;;;;;;;4.42;84.29;100982.84;5033524;28;20571;-74
2020/12/16 00:10:17;;;;;;;18.03;10.07;;;;;;;4.43;84.10;100986.28;5035070;28;20599;-74
2020/12/16 00:12:43;;;;;;;20.17;10.37;;;;;;;4.43;84.52;100983.69;5044302;28;20204;-74
2020/12/16 00:15:10;;;;;;;18.27;10.33;;;;;;;4.44;84.72;100985.44;5052112;28;20203;-74
2020/12/16 00:17:36;;;;;;;16.13;9.80;;;;;;;4.46;84.59;100996.63;5050367;28;20808;-74
2020/12/16 00:20:05;;;;;;;16.70;10.07;;;;;;;4.47;84.59;100993.19;5033994;28;20234;-74
2020/12/16 00:22:34;;;;;;;19.73;10.87;;;;;;;4.47;84.73;100993.19;5031141;28;20203;-74
2020/12/16 00:25:01;;;;;;;17.37;9.87;;;;;;;4.48;85.07;100990.59;5052577;28;20192;-74
2020/12/16 00:27:27;;;;;;;17.63;10.43;;;;;;;4.49;84.78;101000.09;5044690;28;20225;-74
2020/12/16 00:29:53;;;;;;;16.20;9.70;;;;;;;4.50;85.24;101001.81;5048124;28;20687;-74
2020/12/16 00:32:19;;;;;;;17.47;10.33;;;;;;;4.52;84.71;101005.28;5052382;28;20199;-74
2020/12/16 00:34:44;;;;;;;17.07;9.27;;;;;;;4.52;84.96;101013.03;5047065;28;20203;-73
2020/12/16 00:37:10;;;;;;;16.83;9.17;;;;;;;4.54;85.00;101010.44;5054181;28;20260;-74
2020/12/16 00:39:36;;;;;;;17.07;9.90;;;;;;;4.54;85.09;101011.31;5046211;28;20272;-73
2020/12/16 00:42:06;;;;;;;15.70;9.63;;;;;;;4.56;85.25;101021.66;5053301;28;20198;-74
2020/12/16 00:44:32;;;;;;;18.97;9.93;;;;;;;4.56;85.45;101016.47;5029278;28;20298;-74
2020/12/16 00:46:59;;;;;;;15.70;9.20;;;;;;;4.57;85.33;101022.50;5035480;28;20214;-74
2020/12/16 00:49:26;;;;;;;17.63;9.53;;;;;;;4.59;85.37;101021.66;5029269;28;20227;-74
2020/12/16 00:51:53;;;;;;;17.63;9.70;;;;;;;4.60;85.21;101025.97;5026551;28;20203;-74
2020/12/16 00:54:19;;;;;;;17.27;9.83;;;;;;;4.63;84.86;101027.72;5042876;28;20196;-74
2020/12/16 00:56:46;;;;;;;14.67;8.90;;;;;;;4.63;85.43;101032.88;5032295;28;20225;-74
2020/12/16 00:59:13;;;;;;;14.23;9.03;;;;;;;4.63;85.41;101033.72;5049868;28;20588;-74
2020/12/16 01:01:40;;;;;;;16.37;9.57;;;;;;;4.64;84.80;101040.59;5042195;28;20211;-74
2020/12/16 01:04:06;;;;;;;17.37;9.40;;;;;;;4.67;84.90;101037.19;5035628;28;20199;-75
2020/12/16 01:06:37;;;;;;;16.30;9.53;;;;;;;4.66;85.56;101041.50;5030107;28;20292;-74
2020/12/16 01:09:05;;;;;;;16.57;9.50;;;;;;;4.67;85.78;101039.78;5035556;28;20218;-74
2020/12/16 01:11:34;;;;;;;15.63;9.10;;;;;;;4.69;85.75;101049.25;5031012;28;20545;-74
2020/12/16 01:14:00;;;;;;;15.97;9.37;;;;;;;4.70;85.50;101055.28;5033180;28;20203;-74
2020/12/16 01:16:34;;;;;;;18.23;10.10;;;;;;;4.70;85.45;101063.91;5033760;28;20195;-74
2020/12/16 01:19:04;;;;;;;16.87;9.80;;;;;;;4.73;85.50;101071.66;5039671;28;20304;-74
2020/12/16 01:21:34;;;;;;;16.17;8.87;;;;;;;4.75;85.67;101069.09;5029650;28;20517;-74
2020/12/16 01:24:01;;;;;;;14.37;9.07;;;;;;;4.76;85.69;101082.88;5029855;28;20579;-75
2020/12/16 01:26:27;;;;;;;15.53;9.33;;;;;;;4.76;85.68;101075.97;5032792;28;20668;-74
2020/12/16 01:28:59;;;;;;;15.77;9.13;;;;;;;4.76;85.60;101077.69;5046221;28;20226;-74
2020/12/16 01:31:25;;;;;;;15.83;8.87;;;;;;;4.77;85.87;101071.66;5037732;28;20196;-74
2020/12/16 01:33:53;;;;;;;14.93;9.73;;;;;;;4.76;86.21;101075.13;5028354;28;20376;-74
2020/12/16 01:36:37;;;;;;;15.20;8.83;;;;;;;4.76;86.04;101068.22;5026280;28;20227;-74
2020/12/16 01:39:04;;;;;;;13.80;8.30;;;;;;;4.77;86.24;101069.97;5029507;28;20646;-74
2020/12/16 01:41:30;;;;;;;17.07;8.47;;;;;;;4.78;86.30;101071.66;5030977;28;20975;-74
2020/12/16 01:43:56;;;;;;;14.00;8.67;;;;;;;4.80;85.80;101074.25;5027655;28;20743;-75
2020/12/16 01:46:23;;;;;;;16.77;8.83;;;;;;;4.80;86.21;101070.00;5033118;28;20250;-74
2020/12/16 01:48:50;;;;;;;15.20;8.93;;;;;;;4.82;86.01;101075.13;5028416;28;20195;-74
2020/12/16 01:51:20;;;;;;;14.90;9.17;;;;;;;4.82;86.32;101081.19;5026356;28;20292;-74
2020/12/16 01:53:51;;;;;;;16.00;8.97;;;;;;;4.84;86.29;101078.63;5038933;28;20195;-74
2020/12/16 01:56:20;;;;;;;13.47;9.10;;;;;;;4.84;86.68;101076.03;5038011;28;20243;-74
2020/12/16 01:59:01;;;;;;;14.37;8.70;;;;;;;4.85;86.61;101070.00;5035966;28;20222;-74
2020/12/16 02:01:31;;;;;;;13.90;8.63;;;;;;;4.85;87.04;101083.75;5046090;28;20607;-74
2020/12/16 02:03:58;;;;;;;13.93;8.03;;;;;;;4.87;87.00;101089.81;5032102;28;20294;-75
2020/12/16 02:06:34;;;;;;;14.33;8.30;;;;;;;4.89;86.62;101090.69;5046008;28;20207;-74
2020/12/16 02:09:04;;;;;;;14.97;9.07;;;;;;;4.90;86.75;101094.97;5039886;28;20218;-74
2020/12/16 02:11:35;;;;;;;14.10;8.33;;;;;;;4.91;87.15;101101.91;5033844;28;20196;-74
2020/12/16 02:14:07;;;;;;;13.93;8.70;;;;;;;4.92;86.85;101102.75;5028012;28;20710;-74
2020/12/16 02:16:37;;;;;;;12.83;7.97;;;;;;;4.92;87.19;101100.16;5030876;28;20220;-74
2020/12/16 02:19:04;;;;;;;13.93;8.70;;;;;;;4.91;87.18;101099.31;5048682;28;20225;-73
2020/12/16 02:21:42;;;;;;;15.07;8.20;;;;;;;4.93;87.59;101107.94;5034282;28;20667;-75
2020/12/16 02:24:10;;;;;;;15.10;8.57;;;;;;;4.96;87.38;101101.03;5052531;28;20207;-74
2020/12/16 02:26:41;;;;;;;13.80;8.03;;;;;;;4.98;87.52;101104.50;5031707;28;20205;-74
2020/12/16 02:29:09;;;;;;;13.30;8.77;;;;;;;4.97;87.16;101097.63;5051848;28;20294;-74
2020/12/16 02:31:38;;;;;;;15.30;9.27;;;;;;;4.99;87.48;101103.66;5035529;28;20203;-74
2020/12/16 02:34:08;;;;;;;13.33;9.07;;;;;;;4.99;87.21;101101.91;5034096;28;20205;-74
2020/12/16 02:36:37;;;;;;;15.37;9.17;;;;;;;5.00;87.49;101101.06;5038297;28;20195;-75
2020/12/16 02:39:07;;;;;;;15.83;9.00;;;;;;;5.01;87.53;101107.94;5046331;28;20714;-74
2020/12/16 02:41:43;;;;;;;12.90;8.73;;;;;;;5.04;87.98;101117.47;5048792;28;20193;-74
2020/12/16 02:44:13;;;;;;;19.03;8.80;;;;;;;5.03;87.98;101116.59;5030658;28;20603;-74
2020/12/16 02:46:51;;;;;;;13.63;9.00;;;;;;;5.04;87.90;101112.28;5056124;28;20203;-75
2020/12/16 02:49:18;;;;;;;16.27;9.93;;;;;;;5.03;88.08;101111.44;5043466;28;20227;-74
2020/12/16 02:51:44;;;;;;;17.70;10.27;;;;;;;5.04;88.13;101115.72;5035946;28;20645;-74
2020/12/16 02:54:10;;;;;;;17.13;10.17;;;;;;;5.02;88.27;101114.84;5035904;28;20198;-74
2020/12/16 02:57:06;;;;;;;16.17;10.00;;;;;;;5.06;88.42;101116.59;5039625;28;20196;-74
2020/12/16 02:59:35;;;;;;;17.30;9.77;;;;;;;5.06;88.66;101121.75;5037812;28;20207;-74
2020/12/16 03:02:19;;;;;;;18.87;10.90;;;;;;;5.07;88.46;101125.22;5039686;28;20223;-74
2020/12/16 03:04:55;;;;;;;16.23;10.00;;;;;;;5.07;88.62;101123.50;5041259;28;20587;-74
2020/12/16 03:07:34;;;;;;;16.93;9.63;;;;;;;5.09;88.87;101132.13;5036045;28;20183;-74
2020/12/16 03:10:00;;;;;;;16.90;10.37;;;;;;;5.08;89.15;101125.25;5034632;28;20670;-74
2020/12/16 03:12:28;;;;;;;17.47;10.57;;;;;;;5.08;89.32;101119.19;5038832;28;20574;-74
2020/12/16 03:14:54;;;;;;;15.53;10.27;;;;;;;5.08;88.82;101127.81;5039879;28;20200;-74
2020/12/16 03:17:20;;;;;;;18.00;10.70;;;;;;;5.09;89.13;101132.13;5051908;28;20198;-74
2020/12/16 03:19:51;;;;;;;17.00;9.97;;;;;;;5.10;88.66;101136.44;5039151;28;20777;-74
2020/12/16 03:22:19;;;;;;;17.30;9.93;;;;;;;5.10;89.08;101133.88;5034724;28;20207;-74
2020/12/16 03:24:55;;;;;;;17.43;10.47;;;;;;;5.12;88.80;101132.16;5046776;28;20284;-74
2020/12/16 03:27:38;;;;;;;17.17;10.80;;;;;;;5.13;89.02;101135.59;5042353;28;20314;-75
2020/12/16 03:30:22;;;;;;;16.23;10.03;;;;;;;5.14;88.71;101139.91;5055217;28;20233;-74
2020/12/16 03:32:59;;;;;;;16.73;9.97;;;;;;;5.15;89.21;101146.78;5042956;28;20307;-73
2020/12/16 03:35:48;;;;;;;17.23;10.23;;;;;;;5.16;89.06;101145.94;5056963;28;20206;-74
2020/12/16 03:38:16;;;;;;;15.67;9.40;;;;;;;5.15;88.78;101143.34;5030569;28;20245;-74
2020/12/16 03:40:45;;;;;;;16.83;9.67;;;;;;;5.17;89.10;101147.69;5041982;28;20330;-74
2020/12/16 03:43:13;;;;;;;17.70;11.13;;;;;;;5.17;89.00;101150.28;5033982;28;20203;-74
2020/12/16 03:45:38;;;;;;;18.30;10.70;;;;;;;5.17;89.19;101158.03;5057165;28;20207;-74
2020/12/16 03:48:05;;;;;;;16.27;9.43;;;;;;;5.18;89.31;101158.88;5032083;28;20606;-74
2020/12/16 03:50:34;;;;;;;16.37;9.60;;;;;;;5.18;89.05;101157.16;5037193;28;20243;-72
2020/12/16 03:53:00;;;;;;;16.80;10.70;;;;;;;5.18;89.03;101162.31;5035236;28;20203;-74
2020/12/16 03:55:44;;;;;;;17.93;10.93;;;;;;;5.19;89.45;101160.59;5034550;28;20195;-74
2020/12/16 03:58:31;;;;;;;16.10;9.63;;;;;;;5.19;89.35;101160.59;5045575;28;20219;-74
2020/12/16 04:01:10;;;;;;;19.37;11.30;;;;;;;5.20;89.05;101162.34;5035128;28;20202;-73
2020/12/16 04:03:37;;;;;;;17.37;10.83;;;;;;;5.19;89.44;101166.66;5035320;28;20214;-74
2020/12/16 04:06:15;;;;;;;19.33;10.87;;;;;;;5.20;89.48;101170.09;5041247;28;20589;-74
2020/12/16 04:08:44;;;;;;;17.67;11.00;;;;;;;5.18;89.76;101175.25;5037634;28;20204;-74
2020/12/16 04:11:20;;;;;;;17.13;10.77;;;;;;;5.18;89.59;101177.84;5035274;28;20199;-74
2020/12/16 04:13:54;;;;;;;17.50;11.57;;;;;;;5.18;90.10;101176.97;5037673;28;20261;-74
2020/12/16 04:16:24;;;;;;;20.20;11.73;;;;;;;5.17;90.23;101178.72;5033610;28;20199;-74
2020/12/16 04:18:59;;;;;;;18.90;11.10;;;;;;;5.18;90.59;101171.81;5036676;28;20230;-74
2020/12/16 04:21:25;;;;;;;19.70;12.20;;;;;;;5.16;90.83;101173.53;5035122;28;20203;-74
2020/12/16 04:23:52;;;;;;;17.37;11.00;;;;;;;5.15;90.80;101171.78;5037565;28;20211;-75
2020/12/16 04:26:31;;;;;;;17.40;11.13;;;;;;;5.13;91.44;101179.53;5031387;28;20222;-75
2020/12/16 04:29:04;;;;;;;18.63;11.20;;;;;;;5.12;91.82;101176.09;5039309;28;20575;-74
2020/12/16 04:31:31;;;;;;;21.43;11.87;;;;;;;5.11;92.51;101179.50;5041715;28;20293;-74
2020/12/16 04:33:58;;;;;;;19.37;11.47;;;;;;;5.10;92.63;101179.50;5039218;28;20286;-74
2020/12/16 04:36:26;;;;;;;20.57;12.03;;;;;;;5.09;92.96;101176.06;5035874;28;20213;-74
2020/12/16 04:38:52;;;;;;;23.80;12.87;;;;;;;5.09;92.58;101175.22;5033967;28;20226;-74
2020/12/16 04:41:19;;;;;;;22.93;12.93;;;;;;;5.08;93.09;101182.09;5047322;28;20725;-74
2020/12/16 04:43:58;;;;;;;22.30;12.53;;;;;;;5.07;92.77;101180.38;5033761;28;20628;-75
2020/12/16 04:46:29;;;;;;;22.63;13.07;;;;;;;5.07;92.89;101180.38;5038708;28;20201;-75
2020/12/16 04:48:56;;;;;;;21.03;12.67;;;;;;;5.06;92.82;101183.78;5033033;28;20226;-73
2020/12/16 04:51:33;;;;;;;22.77;12.63;;;;;;;5.06;92.90;101183.78;5031194;28;20194;-74
2020/12/16 04:54:00;;;;;;;19.00;12.10;;;;;;;5.07;92.56;101190.72;5032073;28;20238;-74
2020/12/16 04:56:33;;;;;;;23.77;12.40;;;;;;;5.07;92.78;101193.28;5028344;28;20219;-74
2020/12/16 04:59:09;;;;;;;23.03;12.20;;;;;;;5.06;92.82;101196.72;5047301;28;20226;-74
2020/12/16 05:01:48;;;;;;;19.77;11.87;;;;;;;5.08;92.58;101199.31;5036913;28;20202;-75
2020/12/16 05:04:19;;;;;;;20.20;12.23;;;;;;;5.06;92.77;101194.13;5031544;28;20208;-74
2020/12/16 05:06:50;;;;;;;22.87;12.87;;;;;;;5.07;92.53;101195.88;5051673;28;20201;-74
2020/12/16 05:09:17;;;;;;;20.47;12.40;;;;;;;5.08;92.66;101200.19;5030997;28;20300;-74
2020/12/16 05:11:45;;;;;;;20.90;12.53;;;;;;;5.09;92.36;101201.91;5055558;28;20198;-74
2020/12/16 05:14:16;;;;;;;22.87;12.57;;;;;;;5.08;92.28;101201.91;5038876;28;20257;-74
2020/12/16 05:16:55;;;;;;;21.90;12.53;;;;;;;5.09;92.57;101203.63;5050493;28;20817;-74
2020/12/16 05:19:32;;;;;;;21.87;12.53;;;;;;;5.08;92.67;101210.53;5032024;28;20268;-74
2020/12/16 05:22:22;;;;;;;20.70;13.13;;;;;;;5.09;92.20;101206.22;5036570;28;20673;-74
2020/12/16 05:24:49;;;;;;;20.27;12.97;;;;;;;5.09;92.20;101211.41;5040975;28;20732;-73
2020/12/16 05:27:18;;;;;;;24.30;14.00;;;;;;;5.09;92.54;101206.22;5053854;28;20582;-74
2020/12/16 05:29:44;;;;;;;27.13;14.70;;;;;;;5.09;92.47;101209.66;5050615;28;20223;-75
2020/12/16 05:32:19;;;;;;;27.23;15.40;;;;;;;5.09;92.40;101217.41;5034659;28;20278;-74
2020/12/16 05:34:45;;;;;;;31.13;16.83;;;;;;;5.10;92.46;101220.88;5048739;28;20208;-74
2020/12/16 05:37:29;;;;;;;28.50;16.90;;;;;;;5.09;92.11;101209.66;5049605;28;20272;-73
2020/12/16 05:39:57;;;;;;;26.17;14.67;;;;;;;5.10;92.23;101220.88;5046569;28;20225;-74
2020/12/16 05:42:24;;;;;;;24.03;13.73;;;;;;;5.10;92.59;101219.16;5047067;28;20290;-74
2020/12/16 05:44:50;;;;;;;22.57;13.30;;;;;;;5.11;92.43;101225.19;5054351;28;20200;-75
2020/12/16 05:47:17;;;;;;;21.73;13.47;;;;;;;5.11;92.07;101223.47;5048601;28;20221;-74
2020/12/16 05:49:43;;;;;;;26.60;13.93;;;;;;;5.10;92.11;101219.16;5050323;28;20249;-74
2020/12/16 05:52:09;;;;;;;24.60;13.93;;;;;;;5.12;91.63;101222.63;5045862;28;20275;-74
2020/12/16 05:54:36;;;;;;;25.57;14.80;;;;;;;5.12;92.06;101221.75;5051018;28;20268;-74
2020/12/16 05:57:10;;;;;;;24.13;13.50;;;;;;;5.12;92.19;101230.38;5048355;28;20210;-74
2020/12/16 05:59:36;;;;;;;21.73;13.20;;;;;;;5.12;91.85;101230.38;5051804;28;20222;-75
2020/12/16 06:02:04;;;;;;;20.73;13.33;;;;;;;5.12;91.86;101235.53;5047602;28;20569;-73
2020/12/16 06:04:33;;;;;;;22.17;13.47;;;;;;;5.13;91.84;101237.25;5029707;28;20194;-74
2020/12/16 06:06:59;;;;;;;23.47;13.03;;;;;;;5.13;91.95;101252.75;5046652;28;20310;-74
2020/12/16 06:09:25;;;;;;;20.03;12.27;;;;;;;5.14;91.90;101245.91;5046879;28;20224;-74
2020/12/16 06:11:54;;;;;;;19.83;11.87;;;;;;;5.16;91.63;101258.84;5046381;28;20199;-74
2020/12/16 06:14:21;;;;;;;23.57;12.70;;;;;;;5.15;92.20;101257.09;5043843;28;20264;-74
2020/12/16 06:16:47;;;;;;;19.90;12.77;;;;;;;5.15;92.13;101251.91;5048567;28;20489;-74
2020/12/16 06:19:24;;;;;;;22.67;13.07;;;;;;;5.16;92.17;101269.19;5048292;28;20250;-74
2020/12/16 06:21:55;;;;;;;20.70;12.63;;;;;;;5.16;91.65;101270.03;5029547;28;20209;-74
2020/12/16 06:24:28;;;;;;;21.60;11.97;;;;;;;5.15;92.30;101263.13;5032364;28;20203;-74
2020/12/16 06:27:01;;;;;;;22.67;12.97;;;;;;;5.16;91.91;101275.22;5053458;28;20203;-75
2020/12/16 06:29:30;;;;;;;19.77;11.30;;;;;;;5.15;91.94;101277.78;5040568;28;20499;-73
2020/12/16 06:32:01;;;;;;;20.33;12.90;;;;;;;5.15;91.93;101285.53;5032113;28;20268;-74
2020/12/16 06:34:29;;;;;;;24.90;13.90;;;;;;;5.15;91.70;101280.38;5047602;28;20206;-74
2020/12/16 06:36:56;;;;;;;25.60;13.67;;;;;;;5.14;92.11;101289.84;5052444;28;20207;-74
2020/12/16 06:39:22;;;;;;;23.33;13.67;;;;;;;5.15;91.93;101285.53;5047713;28;20215;-74
2020/12/16 06:41:52;;;;;;;22.97;14.83;;;;;;;5.15;92.17;101288.13;5048861;28;20199;-75
2020/12/16 06:44:18;;;;;;;25.73;14.60;;;;;;;5.13;92.20;101288.97;5048486;28;20211;-74
2020/12/16 06:46:47;;;;;;;22.00;13.40;;;;;;;5.15;92.09;101291.56;5047122;28;20211;-74
2020/12/16 06:49:32;;;;;;;24.33;13.83;;;;;;;5.15;92.10;101301.03;5054840;28;20211;-74
2020/12/16 06:52:02;;;;;;;21.07;12.63;;;;;;;5.15;91.96;101295.88;5051428;28;20195;-75
2020/12/16 06:54:36;;;;;;;24.30;13.33;;;;;;;5.16;92.03;101302.78;5051556;28;20231;-75
2020/12/16 06:57:19;;;;;;;23.80;13.53;;;;;;;5.15;92.06;101308.78;5047747;28;20207;-74
2020/12/16 06:59:48;;;;;;;21.47;13.97;;;;;;;5.16;91.89;101313.97;5053341;28;20281;-74
2020/12/16 07:02:15;;;;;;;24.20;13.27;;;;;;;5.16;92.17;101310.53;5048014;28;20218;-74
2020/12/16 07:04:41;;;;;;;23.40;13.53;;;;;;;5.17;92.33;101318.31;5059828;28;20711;-75
2020/12/16 07:07:45;;;;;;;22.43;14.13;;;;;;;5.18;92.37;101316.59;5048771;28;20283;-74
2020/12/16 07:10:41;;;;;;;34.87;20.63;;;;;;;5.18;92.22;101316.59;5057118;28;20582;-74
2020/12/16 07:13:10;;;;;;;34.57;21.73;;;;;;;5.18;92.12;101321.75;5030828;28;20204;-74
2020/12/16 07:15:44;;;;;;;29.70;19.30;;;;;;;5.17;92.16;101320.91;5062177;28;20202;-74
2020/12/16 07:18:44;;;;;;;28.20;16.33;;;;;;;5.18;92.24;101325.19;5046536;28;20219;-74
2020/12/16 07:21:26;;;;;;;25.00;15.30;;;;;;;5.18;92.03;101321.75;5059105;28;20206;-74
2020/12/16 07:23:57;;;;;;;25.67;15.63;;;;;;;5.18;92.47;101327.78;5033783;28;20248;-74
2020/12/16 07:26:28;;;;;;;26.90;15.90;;;;;;;5.18;92.29;101335.53;5052983;28;20198;-74
2020/12/16 07:28:54;;;;;;;26.97;15.93;;;;;;;5.18;92.45;101330.38;5045875;28;20191;-73
2020/12/16 07:31:21;;;;;;;26.17;15.90;;;;;;;5.20;92.31;101336.41;5054510;28;20195;-74
2020/12/16 07:33:47;;;;;;;27.00;16.57;;;;;;;5.20;92.42;101332.97;5047768;28;20203;-74
2020/12/16 07:36:14;;;;;;;50.60;25.83;;;;;;;5.20;92.28;101346.75;5052214;28;20200;-74
2020/12/16 07:38:47;;;;;;;44.17;22.77;;;;;;;5.21;92.41;101342.47;5043779;28;20574;-74
2020/12/16 07:41:22;;;;;;;40.70;22.23;;;;;;;5.23;92.04;101348.50;5051650;28;20199;-75
2020/12/16 07:43:48;;;;;;;46.83;23.37;;;;;;;5.23;92.38;101344.19;5049924;28;20569;-74
2020/12/16 07:46:14;;;;;;;57.77;25.37;;;;;;;5.22;92.14;101345.03;5050203;28;20230;-74
2020/12/16 07:48:45;;;;;;;100.43;34.10;;;;;;;5.24;92.07;101343.34;5047306;28;20226;-74
2020/12/16 07:51:11;;;;;;;116.70;39.77;;;;;;;5.25;92.06;101351.97;5047810;28;20271;-74
2020/12/16 07:53:45;;;;;;;83.97;31.67;;;;;;;5.27;92.04;101355.44;5034921;28;20210;-74
2020/12/16 07:56:11;;;;;;;55.47;25.67;;;;;;;5.27;92.29;101356.28;5045421;28;20195;-73
2020/12/16 07:58:38;;;;;;;69.60;33.57;;;;;;;5.27;92.09;101351.09;5051390;28;20210;-73
2020/12/16 08:01:10;;;;;;;53.60;27.80;;;;;;;5.29;92.35;101358.88;5039212;28;20196;-74
2020/12/16 08:03:38;;;;;;;55.63;26.13;;;;;;;5.29;92.09;101352.00;5050789;28;20200;-74
2020/12/16 08:06:05;;;;;;;52.60;27.30;;;;;;;5.30;92.40;101353.72;5042656;28;20206;-74
2020/12/16 08:08:31;;;;;;;68.57;28.67;;;;;;;5.32;92.26;101366.66;5050105;28;20188;-73
2020/12/16 08:10:57;;;;;;;70.10;26.20;;;;;;;5.33;92.38;101358.06;5042246;28;20619;-74
2020/12/16 08:13:25;;;;;;;114.77;32.13;;;;;;;5.36;92.36;101373.59;5049205;28;20195;-74
2020/12/16 08:15:52;;;;;;;85.30;30.00;;;;;;;5.39;92.13;101375.34;5047280;28;20245;-74
2020/12/16 08:18:18;;;;;;;75.20;29.43;;;;;;;5.41;92.28;101376.22;5051404;28;20237;-74
2020/12/16 08:20:45;;;;;;;50.47;20.93;;;;;;;5.42;91.91;101376.22;5050632;28;20714;-74
2020/12/16 08:23:12;;;;;;;43.50;21.63;;;;;;;5.43;92.15;101379.69;5046365;28;20267;-73
2020/12/16 08:25:38;;;;;;;44.10;22.43;;;;;;;5.44;92.28;101377.09;5026453;28;20203;-74
2020/12/16 08:28:05;;;;;;;40.40;19.93;;;;;;;5.46;92.23;101383.16;5023981;28;20211;-72
2020/12/16 08:30:32;;;;;;;37.77;21.67;;;;;;;5.47;92.30;101384.88;5051451;28;20580;-75
2020/12/16 08:33:02;;;;;;;35.60;20.53;;;;;;;5.48;92.22;101375.41;5045931;28;20623;-74
2020/12/16 08:35:30;;;;;;;39.83;17.00;;;;;;;5.50;91.88;101384.91;5051922;28;20227;-74
2020/12/16 08:38:01;;;;;;;30.63;17.33;;;;;;;5.54;91.74;101390.09;5038155;28;20222;-74
2020/12/16 08:40:27;;;;;;;28.17;16.90;;;;;;;5.56;91.94;101398.72;5042917;28;20218;-74
2020/12/16 08:42:53;;;;;;;25.77;15.63;;;;;;;5.57;91.90;101390.97;5047106;28;20210;-74
2020/12/16 08:45:21;;;;;;;24.90;15.30;;;;;;;5.58;91.85;101403.06;5051356;28;20203;-74
2020/12/16 08:47:47;;;;;;;25.00;15.17;;;;;;;5.59;91.56;101401.34;5045861;28;20329;-74
2020/12/16 08:50:17;;;;;;;24.03;15.10;;;;;;;5.60;91.97;101403.94;5044027;28;20726;-74
2020/12/16 08:52:44;;;;;;;22.90;14.40;;;;;;;5.61;91.71;101405.69;5052383;28;20257;-74
2020/12/16 08:55:15;;;;;;;25.20;15.20;;;;;;;5.63;91.88;101410.88;5038008;28;20211;-74
2020/12/16 08:57:54;;;;;;;25.27;14.67;;;;;;;5.65;91.29;101404.84;5047230;28;20240;-74
2020/12/16 09:00:26;;;;;;;25.23;15.73;;;;;;;5.69;91.25;101410.91;5046639;28;20222;-74
2020/12/16 09:03:08;;;;;;;26.83;15.03;;;;;;;5.69;91.27;101405.72;5052101;28;20203;-74
2020/12/16 09:05:38;;;;;;;25.00;15.07;;;;;;;5.72;90.83;101416.09;5043657;28;20564;-73
2020/12/16 09:08:14;;;;;;;28.00;14.17;;;;;;;5.75;90.86;101416.13;5047881;28;20209;-74
2020/12/16 09:10:42;;;;;;;23.73;14.00;;;;;;;5.76;90.54;101410.06;5028524;28;20226;-74
2020/12/16 09:13:13;;;;;;;25.27;14.80;;;;;;;5.80;90.77;101413.56;5049648;28;20200;-74
2020/12/16 09:15:43;;;;;;;25.87;14.70;;;;;;;5.82;90.41;101411.84;5046361;28;20884;-74
2020/12/16 09:18:09;;;;;;;28.43;15.57;;;;;;;5.84;90.50;101416.19;5034047;28;20773;-74
2020/12/16 09:20:36;;;;;;;22.60;13.90;;;;;;;5.87;90.60;101411.03;5030318;28;20227;-75
2020/12/16 09:23:02;;;;;;;25.97;14.23;;;;;;;5.88;90.07;101407.56;5046888;28;20199;-75
2020/12/16 09:25:28;;;;;;;24.60;14.20;;;;;;;5.91;89.86;101411.91;5027167;28;20210;-74
2020/12/16 09:27:56;;;;;;;30.10;16.30;;;;;;;5.94;89.68;101414.50;5044841;28;20675;-74
2020/12/16 09:30:32;;;;;;;46.40;24.00;;;;;;;5.98;90.31;101413.69;5053857;28;20219;-75
2020/12/16 09:33:13;;;;;;;45.50;24.23;;;;;;;6.03;90.40;101405.94;5039898;28;20218;-74
2020/12/16 09:35:40;;;;;;;34.20;19.57;;;;;;;6.06;89.86;101408.56;5027284;28;20234;-74
2020/12/16 09:38:17;;;;;;;31.47;19.43;;;;;;;6.06;89.91;101412.00;5032655;28;20909;-73
2020/12/16 09:40:43;;;;;;;28.73;15.87;;;;;;;6.09;89.29;101406.00;5049126;28;20222;-75
2020/12/16 09:43:10;;;;;;;26.63;14.53;;;;;;;6.13;89.56;101409.47;5047647;28;20206;-75
2020/12/16 09:45:37;;;;;;;27.03;15.87;;;;;;;6.15;89.30;101406.00;5049816;28;20195;-75
2020/12/16 09:48:03;;;;;;;23.07;13.87;;;;;;;6.15;89.27;101406.00;5045872;28;20206;-75
2020/12/16 09:50:32;;;;;;;27.77;14.73;;;;;;;6.19;89.40;101399.09;5049024;28;20215;-74
2020/12/16 09:53:01;;;;;;;27.57;15.63;;;;;;;6.21;89.47;101402.59;5043346;28;20702;-75
2020/12/16 09:55:28;;;;;;;28.43;15.67;;;;;;;6.24;88.99;101400.88;5050707;28;20685;-75
2020/12/16 09:57:58;;;;;;;25.57;15.33;;;;;;;6.29;88.93;101410.38;5051450;28;20227;-75
2020/12/16 10:00:24;;;;;;;25.30;15.47;;;;;;;6.31;88.76;101403.47;5035924;28;20226;-75
2020/12/16 10:02:56;;;;;;;27.67;15.10;;;;;;;6.34;88.82;101406.09;5051546;28;20702;-75
2020/12/16 10:05:21;;;;;;;25.20;15.03;;;;;;;6.36;88.63;101396.59;5046930;28;20605;-75
2020/12/16 10:07:47;;;;;;;28.37;15.87;;;;;;;6.40;88.28;101395.75;5056022;28;20198;-75
2020/12/16 10:10:14;;;;;;;27.53;16.17;;;;;;;6.44;88.70;101403.53;5044020;28;20213;-75
2020/12/16 10:12:40;;;;;;;25.87;15.27;;;;;;;6.47;88.18;101400.06;5050982;28;20187;-75
2020/12/16 10:15:06;;;;;;;27.97;15.53;;;;;;;6.49;88.12;101393.19;5046655;28;20226;-75
2020/12/16 10:17:32;;;;;;;25.00;14.20;;;;;;;6.51;87.81;101399.25;5047333;28;20227;-74
2020/12/16 10:19:59;;;;;;;26.37;15.20;;;;;;;6.53;87.87;101389.75;5043586;28;20242;-74
2020/12/16 10:22:25;;;;;;;25.13;15.27;;;;;;;6.56;88.00;101396.66;5053510;28;20198;-75
2020/12/16 10:24:50;;;;;;;26.50;15.30;;;;;;;6.56;87.35;101402.72;5052271;28;20726;-74
2020/12/16 10:27:18;;;;;;;26.70;15.73;;;;;;;6.54;86.87;101396.66;5048870;28;20275;-74
2020/12/16 10:29:44;;;;;;;26.87;15.60;;;;;;;6.54;87.31;101390.59;5041794;28;20225;-74
2020/12/16 10:32:10;;;;;;;28.07;15.87;;;;;;;6.54;87.31;101396.66;5054356;28;20657;-74
2020/12/16 10:34:36;;;;;;;29.07;15.83;;;;;;;6.58;87.07;101395.81;5054278;28;20204;-75
2020/12/16 10:37:02;;;;;;;26.07;15.20;;;;;;;6.58;86.92;101395.81;5053023;28;20268;-75
2020/12/16 10:39:28;;;;;;;30.60;16.30;;;;;;;6.62;86.82;101400.13;5048974;28;20305;-75
2020/12/16 10:41:57;;;;;;;31.47;16.60;;;;;;;6.64;87.31;101402.72;5047724;28;20286;-75
2020/12/16 10:44:24;;;;;;;29.20;16.43;;;;;;;6.64;86.82;101406.19;5054243;28;20692;-74
2020/12/16 10:46:54;;;;;;;27.53;15.80;;;;;;;6.67;86.73;101405.34;5035570;28;20211;-75
2020/12/16 10:49:20;;;;;;;30.30;15.87;;;;;;;6.64;86.58;101407.91;5051082;28;20579;-74
2020/12/16 10:51:46;;;;;;;32.10;16.57;;;;;;;6.69;87.15;101403.59;5041510;28;20199;-74
2020/12/16 10:54:12;;;;;;;32.87;17.07;;;;;;;6.71;86.90;101401.88;5047699;28;20192;-75
2020/12/16 10:56:38;;;;;;;29.10;16.47;;;;;;;6.72;86.41;101400.13;5046627;28;20318;-74
2020/12/16 10:59:04;;;;;;;27.27;15.37;;;;;;;6.73;86.58;101401.88;5046465;28;20233;-73
2020/12/16 11:01:35;;;;;;;28.90;15.37;;;;;;;6.76;86.46;101407.94;5048367;28;20210;-75
2020/12/16 11:04:01;;;;;;;34.73;17.97;;;;;;;6.81;86.45;101407.97;5048523;28;20209;-75
2020/12/16 11:06:26;;;;;;;33.73;17.27;;;;;;;6.85;86.51;101404.50;5047810;28;20200;-74
2020/12/16 11:08:52;;;;;;;37.67;19.60;;;;;;;6.89;86.58;101403.63;5041628;28;20769;-74
2020/12/16 11:11:18;;;;;;;34.83;17.10;;;;;;;6.91;86.29;101396.75;5054539;28;20223;-74
2020/12/16 11:13:44;;;;;;;30.77;16.43;;;;;;;6.95;85.82;101397.63;5049135;28;20208;-74
2020/12/16 11:16:10;;;;;;;30.87;16.37;;;;;;;6.96;85.69;101400.19;5050227;28;20200;-75
2020/12/16 11:18:36;;;;;;;30.43;16.50;;;;;;;6.99;85.14;101401.94;5051631;28;20709;-75
2020/12/16 11:21:02;;;;;;;31.10;16.13;;;;;;;7.01;85.23;101407.97;5048695;28;20281;-74
2020/12/16 11:23:28;;;;;;;31.03;16.33;;;;;;;7.04;85.05;101402.81;5050651;28;20204;-74
2020/12/16 11:25:54;;;;;;;36.57;17.47;;;;;;;7.05;84.64;101409.69;5050541;28;20233;-75
2020/12/16 11:28:20;;;;;;;31.93;16.90;;;;;;;7.07;84.69;101400.22;5049692;28;20255;-75
2020/12/16 11:30:46;;;;;;;27.63;15.53;;;;;;;7.09;84.69;101408.88;5043412;28;20232;-75